Time;durP1;ratioP1;P1;durP2;ratioP2;P2;SDS_P1;SDS_P2;PMS_P1;PMS_P2;Temp;Humidity;BMP_temperature;BMP_pressure;BME280_temperature;BME280_humidity;BME280_pressure;Samples;Min_cycle;Max_cycle;Signal;HPM_P1;HPM_P2
2024/04/13 00:01:20;;;;;;;7.10;2.63;;;;;;;13.77;72.13;102383.97;5378120;26;20001;-53
2024/04/13 00:03:47;;;;;;;5.22;2.60;;;;;;;14.30;70.52;102390.50;5365675;26;21011;-55
2024/04/13 00:06:13;;;;;;;9.23;2.50;;;;;;;14.10;70.59;102387.69;5354922;26;20334;-54
2024/04/13 00:08:40;;;;;;;4.90;2.08;;;;;;;14.02;71.64;102379.41;5361086;26;20004;-56
2024/04/13 00:11:09;;;;;;;5.55;2.40;;;;;;;14.02;71.40;102380.25;5367618;26;20000;-54
2024/04/13 00:13:36;;;;;;;7.25;2.30;;;;;;;14.25;70.54;102376.59;5359054;26;20440;-55
2024/04/13 00:16:02;;;;;;;5.43;2.20;;;;;;;14.41;69.55;102376.22;5364153;26;20024;-53
2024/04/13 00:18:32;;;;;;;6.00;2.75;;;;;;;14.19;70.82;102368.19;5371270;26;20002;-57
2024/04/13 00:20:58;;;;;;;7.13;2.47;;;;;;;14.39;69.79;102366.56;5335755;26;20011;-51
2024/04/13 00:23:24;;;;;;;8.32;2.58;;;;;;;14.24;70.09;102364.16;5384598;26;20011;-57
2024/04/13 00:25:54;;;;;;;5.00;2.20;;;;;;;14.19;70.68;102365.50;5380380;26;20015;-52
2024/04/13 00:28:20;;;;;;;5.82;2.20;;;;;;;14.17;70.49;102357.59;5360847;26;20529;-56
2024/04/13 00:30:48;;;;;;;5.30;2.10;;;;;;;14.08;71.09;102361.00;5368479;26;20004;-51
2024/04/13 00:33:14;;;;;;;6.55;2.25;;;;;;;14.24;70.67;102361.47;5362975;26;20350;-59
2024/04/13 00:35:40;;;;;;;4.55;2.08;;;;;;;13.97;71.99;102354.78;5364706;26;20036;-53
2024/04/13 00:38:06;;;;;;;5.10;2.10;;;;;;;14.00;72.06;102351.84;5351595;26;20434;-53
2024/04/13 00:40:32;;;;;;;6.88;2.42;;;;;;;14.04;70.86;102343.44;5363011;26;20015;-50
2024/04/13 00:43:05;;;;;;;9.40;2.40;;;;;;;14.11;70.36;102344.66;5372287;26;20019;-56
2024/04/13 00:45:42;;;;;;;6.32;2.13;;;;;;;14.21;70.84;102348.31;5361092;26;20022;-53
2024/04/13 00:48:22;;;;;;;5.82;1.90;;;;;;;14.39;69.34;102345.13;5367578;26;20336;-51
2024/04/13 00:50:53;;;;;;;3.30;2.00;;;;;;;14.06;70.49;102354.91;5364499;26;20745;-53
2024/04/13 00:53:20;;;;;;;3.65;2.10;;;;;;;14.10;71.40;102345.66;5388028;26;20008;-50
2024/04/13 00:55:47;;;;;;;3.45;1.90;;;;;;;14.18;71.34;102348.56;5395860;26;20015;-56
2024/04/13 00:58:14;;;;;;;4.70;2.08;;;;;;;14.32;69.70;102347.44;5393135;26;20000;-55
2024/04/13 01:00:44;;;;;;;5.78;1.80;;;;;;;14.25;69.76;102348.91;5356660;26;20000;-53
2024/04/13 01:03:09;;;;;;;7.82;1.65;;;;;;;14.22;69.74;102344.66;5364600;26;20022;-53
2024/04/13 01:05:35;;;;;;;4.15;1.95;;;;;;;14.15;70.30;102342.59;5389053;26;20479;-51
2024/04/13 01:08:02;;;;;;;6.57;1.95;;;;;;;14.14;70.60;102341.75;5369160;26;20000;-57
2024/04/13 01:10:28;;;;;;;7.38;2.45;;;;;;;14.18;69.83;102348.56;5370625;26;20000;-54
2024/04/13 01:12:54;;;;;;;7.45;2.03;;;;;;;14.23;70.02;102346.38;5341939;26;20022;-52
2024/04/13 01:15:20;;;;;;;7.82;3.30;;;;;;;13.93;71.42;102346.13;5368142;26;20004;-53
2024/04/13 01:17:48;;;;;;;5.28;2.40;;;;;;;14.12;70.71;102345.50;5371787;26;20460;-50
2024/04/13 01:20:14;;;;;;;6.05;2.03;;;;;;;14.14;70.67;102352.47;5367103;26;20336;-54
2024/04/13 01:22:43;;;;;;;6.93;2.20;;;;;;;13.90;71.47;102344.53;5366795;26;20007;-50
2024/04/13 01:25:10;;;;;;;8.60;2.33;;;;;;;14.21;70.08;102344.78;5368313;26;20001;-56
2024/04/13 01:27:36;;;;;;;6.50;2.35;;;;;;;14.16;70.15;102339.81;5354383;26;20015;-56
2024/04/13 01:30:07;;;;;;;5.03;2.00;;;;;;;13.96;71.65;102342.34;5356321;26;20004;-49
2024/04/13 01:32:33;;;;;;;5.25;2.40;;;;;;;14.11;70.72;102331.25;5358030;26;20019;-55
2024/04/13 01:35:12;;;;;;;7.85;2.30;;;;;;;13.97;70.69;102334.16;5361369;26;20459;-52
2024/04/13 01:37:38;;;;;;;7.07;2.55;;;;;;;14.00;71.65;102349.16;5376333;26;20001;-53
2024/04/13 01:40:06;;;;;;;4.20;2.35;;;;;;;13.83;72.39;102345.16;5378640;26;20000;-53
2024/04/13 01:42:32;;;;;;;7.55;2.42;;;;;;;13.58;72.93;102332.78;5316460;26;20012;-50
2024/04/13 01:44:58;;;;;;;8.40;2.20;;;;;;;13.89;71.58;102337.47;5341695;26;20037;-54
2024/04/13 01:47:24;;;;;;;6.07;2.30;;;;;;;13.72;72.14;102334.41;5344916;26;20020;-56
2024/04/13 01:49:50;;;;;;;4.43;2.13;;;;;;;13.99;70.85;102336.72;5364793;26;20004;-55
2024/04/13 01:52:16;;;;;;;4.63;2.00;;;;;;;13.91;71.92;102337.34;5367469;26;20027;-55
2024/04/13 01:54:41;;;;;;;6.63;2.25;;;;;;;13.56;72.29;102344.63;5368186;26;21859;-53
2024/04/13 01:57:07;;;;;;;5.22;1.83;;;;;;;13.52;72.40;102339.44;5365106;26;20033;-53
2024/04/13 01:59:33;;;;;;;8.57;2.20;;;;;;;13.56;72.67;102334.72;5357172;26;20075;-56
2024/04/13 02:01:59;;;;;;;5.57;2.15;;;;;;;13.62;72.35;102333.44;5362920;26;20000;-55
2024/04/13 02:04:24;;;;;;;3.03;1.80;;;;;;;13.45;73.34;102332.84;5373548;26;20019;-54
2024/04/13 02:06:50;;;;;;;6.22;2.22;;;;;;;13.71;72.04;102330.88;5369269;26;20081;-52
2024/04/13 02:09:18;;;;;;;5.10;2.03;;;;;;;13.75;71.50;102329.66;5364578;26;20011;-54
2024/04/13 02:11:45;;;;;;;4.97;1.90;;;;;;;13.87;70.58;102327.84;5321912;26;20015;-54
2024/04/13 02:14:11;;;;;;;6.63;1.67;;;;;;;13.66;71.80;102325.00;5357809;26;20015;-54
2024/04/13 02:16:37;;;;;;;7.47;2.72;;;;;;;13.94;70.58;102310.31;5369665;26;20016;-57
2024/04/13 02:19:06;;;;;;;5.28;1.88;;;;;;;13.76;71.66;102309.09;5363743;26;20019;-58
2024/04/13 02:21:32;;;;;;;6.13;1.90;;;;;;;13.56;71.60;102315.16;5378330;26;20020;-50
2024/04/13 02:23:58;;;;;;;8.40;2.00;;;;;;;13.45;71.61;102313.25;5362589;26;20016;-56
2024/04/13 02:26:24;;;;;;;9.95;2.17;;;;;;;13.27;73.82;102312.84;5374759;26;20017;-49
2024/04/13 02:28:49;;;;;;;4.55;2.22;;;;;;;13.59;72.62;102330.97;5354467;26;20000;-52
2024/04/13 02:31:17;;;;;;;8.73;2.00;;;;;;;13.57;71.65;102332.91;5344574;26;20020;-54
2024/04/13 02:33:43;;;;;;;7.50;2.50;;;;;;;13.44;72.66;102328.47;5368274;26;20004;-55
2024/04/13 02:36:09;;;;;;;9.82;2.53;;;;;;;13.48;72.24;102332.63;5353305;26;20039;-55
2024/04/13 02:38:34;;;;;;;7.40;1.85;;;;;;;13.39;72.87;102322.63;5364258;26;20008;-52
2024/04/13 02:41:01;;;;;;;7.85;2.10;;;;;;;13.28;73.58;102317.25;5359702;26;20015;-50
2024/04/13 02:43:31;;;;;;;6.45;2.38;;;;;;;13.20;73.35;102319.66;5368440;26;20000;-57
2024/04/13 02:46:07;;;;;;;7.63;2.20;;;;;;;13.20;74.04;102321.47;5369306;26;20459;-54
2024/04/13 02:48:32;;;;;;;9.02;2.08;;;;;;;13.29;73.36;102312.72;5356160;26;20004;-53
2024/04/13 02:50:59;;;;;;;9.98;2.08;;;;;;;13.30;73.49;102322.47;5379930;26;20488;-52
2024/04/13 02:53:24;;;;;;;9.43;2.40;;;;;;;13.13;73.66;102326.44;5366714;26;20004;-54
2024/04/13 02:55:50;;;;;;;6.53;1.75;;;;;;;13.21;72.84;102331.22;5381983;26;20004;-49
2024/04/13 02:58:17;;;;;;;8.10;1.90;;;;;;;13.35;72.82;102326.50;5386653;26;20327;-53
2024/04/13 03:00:57;;;;;;;9.50;2.03;;;;;;;13.09;74.18;102319.59;5356403;26;20004;-48
2024/04/13 03:03:24;;;;;;;;;;;;;;;13.18;74.28;102318.91;5315189;26;20013;-50
2024/04/13 03:05:59;;;;;;;7.90;2.65;;;;;;;13.20;73.77;102310.75;5369670;26;19932;-49
2024/04/13 03:08:24;;;;;;;8.52;1.95;;;;;;;13.22;73.58;102324.88;5376762;26;20550;-52
2024/04/13 03:10:54;;;;;;;4.63;1.92;;;;;;;13.34;72.41;102324.81;5366352;26;20000;-55
2024/04/13 03:13:21;;;;;;;6.57;2.30;;;;;;;13.52;71.60;102331.41;5366650;26;20004;-53
2024/04/13 03:16:00;;;;;;;8.85;2.13;;;;;;;13.14;72.46;102322.78;5364729;26;20012;-56
2024/04/13 03:18:26;;;;;;;9.52;2.22;;;;;;;13.13;73.17;102331.78;5366728;26;20000;-55
2024/04/13 03:20:52;;;;;;;5.90;1.90;;;;;;;13.20;73.30;102326.81;5366365;26;20313;-57
2024/04/13 03:23:18;;;;;;;4.93;1.60;;;;;;;13.13;74.03;102319.25;5385048;26;20001;-55
2024/04/13 03:25:44;;;;;;;10.65;2.42;;;;;;;12.96;73.99;102313.44;5359696;26;20073;-56
2024/04/13 03:28:10;;;;;;;7.45;1.90;;;;;;;13.08;73.26;102316.06;5370276;26;19997;-53
2024/04/13 03:30:39;;;;;;;8.38;2.40;;;;;;;12.87;74.30;102309.66;5371775;26;20010;-50
2024/04/13 03:33:05;;;;;;;11.93;2.45;;;;;;;13.07;72.70;102308.16;5361600;26;20014;-55
2024/04/13 03:35:37;;;;;;;10.25;2.72;;;;;;;13.02;73.86;102315.66;5374645;26;20019;-57
2024/04/13 03:38:04;;;;;;;9.55;2.60;;;;;;;13.03;73.42;102317.38;5370551;26;20011;-53
2024/04/13 03:40:30;;;;;;;8.20;2.25;;;;;;;13.05;73.03;102316.31;5364843;26;20364;-56
2024/04/13 03:42:55;;;;;;;11.55;2.40;;;;;;;12.68;73.88;102312.81;5353887;26;20015;-56
2024/04/13 03:45:27;;;;;;;11.23;3.10;;;;;;;12.63;74.66;102311.47;5389414;26;20043;-52
2024/04/13 03:47:53;;;;;;;11.02;2.30;;;;;;;12.90;73.88;102308.56;5372027;26;20393;-54
2024/04/13 03:50:19;;;;;;;12.50;2.40;;;;;;;12.55;75.74;102309.31;5369256;26;20019;-53
2024/04/13 03:52:45;;;;;;;10.93;2.95;;;;;;;12.84;73.71;102307.22;5366175;26;20002;-57
2024/04/13 03:55:10;;;;;;;8.85;2.10;;;;;;;12.88;74.50;102307.84;5369716;26;20423;-53
2024/04/13 03:57:36;;;;;;;9.00;2.28;;;;;;;12.66;75.79;102305.91;5362742;26;20008;-51
2024/04/13 04:00:06;;;;;;;13.90;2.70;;;;;;;12.62;76.01;102296.38;5385188;26;20007;-53
2024/04/13 04:02:36;;;;;;;11.05;2.60;;;;;;;12.79;74.53;102303.16;5366520;26;21853;-56
2024/04/13 04:05:03;;;;;;;12.52;2.55;;;;;;;12.55;74.61;102301.28;5381171;26;20004;-55
2024/04/13 04:07:29;;;;;;;14.30;2.28;;;;;;;12.74;74.55;102299.00;5359940;26;20724;-57
2024/04/13 04:09:55;;;;;;;10.32;2.55;;;;;;;12.68;73.94;102302.13;5384792;26;20485;-53
2024/04/13 04:12:21;;;;;;;12.13;2.25;;;;;;;12.70;75.23;102302.03;5368573;26;20000;-53
2024/04/13 04:14:46;;;;;;;10.10;2.65;;;;;;;12.73;74.86;102315.19;5370720;26;20004;-53
2024/04/13 04:17:12;;;;;;;17.20;3.00;;;;;;;12.79;74.25;102311.19;5365501;26;20005;-55
2024/04/13 04:19:38;;;;;;;11.18;2.28;;;;;;;12.42;76.38;102313.84;5352915;26;20426;-49
2024/04/13 04:22:04;;;;;;;13.05;3.17;;;;;;;12.68;74.59;102328.03;5371385;26;20303;-53
2024/04/13 04:24:30;;;;;;;11.18;2.33;;;;;;;12.69;75.02;102333.28;5355239;26;20086;-54
2024/04/13 04:26:55;;;;;;;13.02;3.25;;;;;;;12.40;75.57;102321.13;5372347;26;20323;-54
2024/04/13 04:29:21;;;;;;;20.60;3.75;;;;;;;12.64;75.06;102316.72;5375923;26;20011;-54
2024/04/13 04:31:47;;;;;;;12.57;2.80;;;;;;;12.55;75.01;102324.50;5367979;26;20431;-54
2024/04/13 04:34:13;;;;;;;11.82;2.75;;;;;;;12.70;74.86;102316.25;5354771;26;20001;-57
2024/04/13 04:36:41;;;;;;;12.07;2.70;;;;;;;12.74;74.59;102319.56;5372246;26;20411;-54
2024/04/13 04:39:07;;;;;;;10.88;2.45;;;;;;;12.61;75.02;102324.09;5356563;26;20007;-50
2024/04/13 04:41:33;;;;;;;20.95;3.20;;;;;;;12.65;74.30;102313.06;5382625;26;20000;-55
2024/04/13 04:43:58;;;;;;;17.30;2.85;;;;;;;12.61;74.48;102314.25;5366933;26;20038;-55
2024/04/13 04:46:24;;;;;;;11.73;2.45;;;;;;;12.62;74.98;102310.63;5369184;26;20431;-55
2024/04/13 04:48:53;;;;;;;14.93;3.00;;;;;;;12.71;74.15;102303.72;5369686;26;20160;-53
2024/04/13 04:51:20;;;;;;;11.88;2.45;;;;;;;12.65;75.32;102302.38;5397924;26;20004;-58
2024/04/13 04:53:46;;;;;;;12.60;2.85;;;;;;;12.66;75.03;102305.91;5365743;26;20004;-55
2024/04/13 04:56:12;;;;;;;13.02;3.58;;;;;;;12.60;74.79;102309.88;5372602;26;20328;-50
2024/04/13 04:58:38;;;;;;;16.50;3.47;;;;;;;12.72;74.46;102311.66;5370019;26;20036;-53
2024/04/13 05:01:05;;;;;;;11.80;2.97;;;;;;;12.93;73.13;102317.22;5367101;26;20004;-55
2024/04/13 05:03:30;;;;;;;12.55;3.03;;;;;;;12.94;72.97;102318.09;5369130;26;20012;-55
2024/04/13 05:05:57;;;;;;;14.75;3.03;;;;;;;12.79;73.35;102316.53;5347407;26;20466;-57
2024/04/13 05:08:23;;;;;;;8.27;2.35;;;;;;;12.86;72.96;102312.44;5395403;26;20043;-52
2024/04/13 05:10:49;;;;;;;17.90;3.40;;;;;;;12.71;74.43;102325.13;5343953;26;20001;-52
2024/04/13 05:13:15;;;;;;;13.35;2.90;;;;;;;12.69;74.78;102325.25;5365261;26;20058;-57
2024/04/13 05:15:41;;;;;;;10.32;2.90;;;;;;;12.76;74.22;102318.47;5370225;26;20012;-56
2024/04/13 05:18:08;;;;;;;13.07;3.55;;;;;;;13.06;72.54;102320.69;5370369;26;20008;-53
2024/04/13 05:20:36;;;;;;;14.15;3.25;;;;;;;12.99;73.59;102321.25;5358080;26;20007;-52
2024/04/13 05:23:05;;;;;;;18.15;3.70;;;;;;;12.89;73.91;102320.22;5369319;26;20000;-51
2024/04/13 05:25:32;;;;;;;10.65;2.60;;;;;;;13.05;73.68;102316.31;5369255;26;20423;-56
2024/04/13 05:27:57;;;;;;;13.00;2.80;;;;;;;12.88;74.27;102311.34;5371716;26;20339;-53
2024/04/13 05:30:24;;;;;;;14.98;2.95;;;;;;;13.05;72.77;102312.78;5355635;26;20000;-52
2024/04/13 05:32:50;;;;;;;9.95;2.83;;;;;;;13.12;73.52;102314.88;5368211;26;20000;-56
2024/04/13 05:35:18;;;;;;;13.15;3.30;;;;;;;13.25;72.70;102312.09;5372110;26;20001;-56
2024/04/13 05:37:45;;;;;;;10.20;2.75;;;;;;;13.34;72.19;102307.88;5364971;26;20888;-56
2024/04/13 05:40:15;;;;;;;26.70;4.00;;;;;;;13.35;72.34;102317.63;5368356;26;20012;-52
2024/04/13 05:42:41;;;;;;;11.32;3.65;;;;;;;13.17;73.12;102312.69;5365897;26;20004;-54
2024/04/13 05:45:07;;;;;;;14.40;3.33;;;;;;;13.36;72.36;102312.13;5378417;26;20031;-54
2024/04/13 05:47:33;;;;;;;14.63;3.15;;;;;;;13.34;72.01;102308.75;5374231;26;19997;-56
2024/04/13 05:49:59;;;;;;;15.43;2.83;;;;;;;13.41;72.05;102312.66;5371279;26;20004;-52
2024/04/13 05:52:25;;;;;;;12.52;3.88;;;;;;;13.30;73.31;102311.75;5368843;26;20001;-58
2024/04/13 05:54:52;;;;;;;12.35;2.97;;;;;;;13.42;72.61;102311.66;5366191;26;20466;-55
2024/04/13 05:57:17;;;;;;;11.60;3.05;;;;;;;13.09;73.30;102312.41;5349544;26;19996;-55
2024/04/13 05:59:43;;;;;;;18.98;3.10;;;;;;;13.38;72.83;102310.19;5394461;26;20044;-55
2024/04/13 06:02:09;;;;;;;12.25;2.83;;;;;;;13.56;72.50;102317.81;5347841;26;20005;-50
2024/04/13 06:04:35;;;;;;;12.90;2.75;;;;;;;13.30;73.50;102315.28;5369164;26;20347;-53
2024/04/13 06:07:01;;;;;;;12.80;3.20;;;;;;;13.24;74.55;102312.22;5359632;26;20343;-55
2024/04/13 06:09:27;;;;;;;18.10;4.28;;;;;;;13.42;73.23;102321.53;5364047;26;20347;-58
2024/04/13 06:11:52;;;;;;;14.50;3.03;;;;;;;13.43;72.37;102328.56;5371181;26;20000;-50
2024/04/13 06:14:19;;;;;;;15.13;3.17;;;;;;;13.48;73.13;102316.56;5362709;26;20016;-52
2024/04/13 06:16:44;;;;;;;14.85;4.18;;;;;;;13.68;72.38;102323.09;5369089;26;20004;-57
2024/04/13 06:19:13;;;;;;;19.50;4.68;;;;;;;13.99;71.57;102334.91;5354276;26;20005;-52
2024/04/13 06:21:42;;;;;;;14.10;3.10;;;;;;;14.11;70.61;102327.72;5362590;26;20012;-55
2024/04/13 06:24:07;;;;;;;12.40;2.90;;;;;;;14.38;70.38;102333.53;5369720;26;20000;-49
2024/04/13 06:26:34;;;;;;;13.32;2.90;;;;;;;14.21;70.26;102332.22;5367872;26;20436;-53
2024/04/13 06:29:00;;;;;;;12.27;3.15;;;;;;;14.08;71.70;102336.88;5344451;26;20012;-50
2024/04/13 06:31:26;;;;;;;11.32;2.92;;;;;;;14.09;72.34;102333.22;5373963;26;20005;-54
2024/04/13 06:33:52;;;;;;;11.00;2.80;;;;;;;14.58;70.64;102335.47;5369267;26;20435;-56
2024/04/13 06:36:18;;;;;;;19.05;3.42;;;;;;;14.18;72.26;102335.16;5350928;26;20546;-56
2024/04/13 06:38:44;;;;;;;12.82;3.40;;;;;;;14.35;70.58;102339.16;5389861;26;20081;-53
2024/04/13 06:41:10;;;;;;;13.30;3.50;;;;;;;14.29;71.30;102328.94;5356142;26;20019;-51
2024/04/13 06:43:35;;;;;;;12.30;3.60;;;;;;;14.38;70.91;102332.72;5363144;26;20869;-55
2024/04/13 06:46:02;;;;;;;18.40;5.65;;;;;;;14.43;70.72;102330.50;5368830;26;20427;-54
2024/04/13 06:48:28;;;;;;;12.88;3.28;;;;;;;14.57;69.37;102330.28;5369188;26;20044;-53
2024/04/13 06:50:54;;;;;;;11.63;2.95;;;;;;;14.58;70.93;102335.47;5356834;26;20001;-51
2024/04/13 06:53:20;;;;;;;14.73;3.53;;;;;;;14.72;69.95;102327.16;5363586;26;20538;-53
2024/04/13 06:55:45;;;;;;;17.27;4.28;;;;;;;14.56;70.84;102325.88;5394469;26;20005;-56
2024/04/13 06:58:11;;;;;;;10.68;3.08;;;;;;;14.89;70.09;102311.50;5368612;26;20008;-54
2024/04/13 07:00:37;;;;;;;13.18;3.40;;;;;;;14.89;69.61;102306.13;5348163;26;20375;-52
2024/04/13 07:03:03;;;;;;;9.75;2.92;;;;;;;14.96;68.74;102312.69;5362861;26;20128;-50
2024/04/13 07:05:29;;;;;;;11.05;2.90;;;;;;;15.00;69.42;102316.81;5366215;26;20015;-56
2024/04/13 07:07:55;;;;;;;8.32;3.20;;;;;;;14.84;69.82;102319.94;5362458;26;20024;-51
2024/04/13 07:10:21;;;;;;;14.65;3.47;;;;;;;15.00;69.60;102312.28;5363127;26;20011;-50
2024/04/13 07:12:46;;;;;;;11.23;3.03;;;;;;;15.41;68.39;102313.34;5370373;26;20428;-58
2024/04/13 07:15:13;;;;;;;14.80;3.15;;;;;;;15.22;68.67;102324.78;5361167;26;20012;-52
2024/04/13 07:17:39;;;;;;;17.88;4.05;;;;;;;14.88;71.07;102313.31;5351140;26;20000;-53
2024/04/13 07:20:07;;;;;;;14.63;3.28;;;;;;;15.21;69.27;102306.94;5366582;26;20000;-56
2024/04/13 07:22:33;;;;;;;17.23;3.83;;;;;;;15.43;69.38;102312.25;5366180;26;20450;-52
2024/04/13 07:24:59;;;;;;;9.82;2.88;;;;;;;15.35;68.46;102313.88;5370590;26;20420;-57
2024/04/13 07:27:25;;;;;;;9.93;2.78;;;;;;;15.16;68.91;102303.81;5403675;26;20017;-51
2024/04/13 07:29:51;;;;;;;13.32;3.47;;;;;;;15.21;69.44;102306.94;5365384;26;20559;-57
2024/04/13 07:32:16;;;;;;;10.80;3.38;;;;;;;15.54;68.27;102310.47;5393213;26;20405;-57
2024/04/13 07:34:42;;;;;;;13.10;3.20;;;;;;;15.61;68.02;102304.41;5369351;26;20292;-51
2024/04/13 07:37:08;;;;;;;13.85;3.60;;;;;;;15.62;68.38;102295.38;5368860;26;20004;-52
2024/04/13 07:39:34;;;;;;;17.63;3.63;;;;;;;15.61;67.80;102301.72;5367957;26;20004;-57
2024/04/13 07:42:01;;;;;;;14.57;2.90;;;;;;;15.24;69.04;102295.97;5369815;26;20005;-57
2024/04/13 07:44:26;;;;;;;12.43;3.60;;;;;;;15.71;67.97;102299.97;5362873;26;20009;-57
2024/04/13 07:46:53;;;;;;;10.80;2.92;;;;;;;15.92;67.08;102288.31;5392204;26;20005;-57
2024/04/13 07:49:20;;;;;;;8.40;2.75;;;;;;;15.96;66.65;102282.50;5374571;26;20011;-53
2024/04/13 07:51:47;;;;;;;12.70;3.17;;;;;;;16.19;66.61;102284.06;5347309;26;20081;-55
2024/04/13 07:54:14;;;;;;;13.35;4.03;;;;;;;16.23;65.95;102279.22;5310126;26;20602;-57
2024/04/13 07:56:40;;;;;;;12.20;3.33;;;;;;;15.76;66.92;102281.59;5367385;26;20015;-59
2024/04/13 07:59:05;;;;;;;13.63;3.47;;;;;;;16.16;65.57;102287.00;5396027;26;20342;-55
2024/04/13 08:01:31;;;;;;;11.48;3.05;;;;;;;15.95;66.11;102280.81;5363607;26;20000;-54
2024/04/13 08:03:57;;;;;;;12.35;3.05;;;;;;;16.36;65.37;102285.22;5367156;26;20336;-53
2024/04/13 08:06:25;;;;;;;13.73;3.22;;;;;;;15.84;66.31;102283.59;5383523;26;20017;-56
2024/04/13 08:08:51;;;;;;;13.68;4.07;;;;;;;15.82;66.25;102281.03;5387407;26;20001;-55
2024/04/13 08:11:17;;;;;;;19.67;3.88;;;;;;;16.08;66.19;102277.91;5394139;26;20000;-57
2024/04/13 08:13:43;;;;;;;13.55;3.53;;;;;;;16.19;65.92;102277.81;5360510;26;20031;-54
2024/04/13 08:16:09;;;;;;;10.45;3.38;;;;;;;16.50;64.97;102276.75;5365869;26;20012;-53
2024/04/13 08:18:36;;;;;;;9.20;2.90;;;;;;;16.49;64.88;102269.69;5366069;26;20425;-56
2024/04/13 08:21:02;;;;;;;11.93;3.35;;;;;;;16.38;65.01;102277.84;5350702;26;20015;-57
2024/04/13 08:23:28;;;;;;;9.98;3.47;;;;;;;16.30;65.59;102269.63;5356343;26;20000;-57
2024/04/13 08:26:04;;;;;;;11.82;3.70;;;;;;;16.43;64.96;102270.22;5361385;26;20019;-57
2024/04/13 08:28:30;;;;;;;11.38;3.08;;;;;;;16.71;64.77;102273.94;5361063;26;20468;-56
2024/04/13 08:30:55;;;;;;;14.38;3.90;;;;;;;16.57;63.69;102272.50;5319258;26;20044;-59
2024/04/13 08:33:21;;;;;;;12.55;3.80;;;;;;;16.85;63.10;102267.28;5368099;26;20531;-56
2024/04/13 08:35:47;;;;;;;11.02;3.97;;;;;;;17.17;62.25;102253.56;5369148;26;20001;-57
2024/04/13 08:38:13;;;;;;;12.85;4.93;;;;;;;17.40;62.33;102252.22;5372273;26;20005;-58
2024/04/13 08:40:44;;;;;;;12.00;4.07;;;;;;;17.74;61.28;102258.78;5360471;26;20004;-54
2024/04/13 08:43:10;;;;;;;14.88;4.38;;;;;;;17.17;61.98;102262.47;5374835;26;20001;-55
2024/04/13 08:45:36;;;;;;;17.00;4.68;;;;;;;16.99;62.62;102248.03;5367627;26;20474;-54
2024/04/13 08:48:03;;;;;;;12.85;4.53;;;;;;;17.56;61.03;102254.28;5364166;26;20001;-56
2024/04/13 08:50:31;;;;;;;9.88;3.80;;;;;;;17.63;61.13;102256.25;5392294;26;20322;-55
2024/04/13 08:52:57;;;;;;;13.45;4.53;;;;;;;17.74;60.83;102255.25;5366197;26;20443;-55
2024/04/13 08:55:23;;;;;;;11.38;3.80;;;;;;;17.26;59.78;102244.56;5359168;26;20004;-55
2024/04/13 08:57:50;;;;;;;13.00;3.53;;;;;;;17.65;60.16;102239.94;5370340;26;20000;-55
2024/04/13 09:00:19;;;;;;;8.82;3.10;;;;;;;17.68;59.68;102237.78;5352803;26;20012;-52
2024/04/13 09:02:49;;;;;;;9.70;3.60;;;;;;;17.74;59.81;102233.66;5372046;26;20011;-57
2024/04/13 09:05:15;;;;;;;9.33;3.70;;;;;;;17.26;60.55;102237.34;5362116;26;20004;-54
2024/04/13 09:07:42;;;;;;;9.32;4.50;;;;;;;17.55;60.41;102242.66;5361502;26;20004;-55
2024/04/13 09:10:11;;;;;;;10.57;4.38;;;;;;;17.86;59.55;102239.75;5402310;26;20011;-55
2024/04/13 09:12:37;;;;;;;10.43;3.65;;;;;;;18.19;58.67;102237.28;5365267;26;20015;-55
2024/04/13 09:15:04;;;;;;;9.85;3.45;;;;;;;18.48;57.79;102239.78;5350105;26;20411;-54
2024/04/13 09:17:33;;;;;;;8.27;3.72;;;;;;;18.16;58.10;102237.56;5370296;26;20012;-57
2024/04/13 09:20:09;;;;;;;9.52;3.05;;;;;;;18.32;58.11;102230.66;5387413;26;20011;-54
2024/04/13 09:22:36;;;;;;;9.85;3.10;;;;;;;18.24;56.73;102224.19;5369768;26;20015;-56
2024/04/13 09:25:03;;;;;;;9.48;3.13;;;;;;;18.32;56.48;102222.56;5361018;26;20015;-54
2024/04/13 09:27:30;;;;;;;8.60;2.90;;;;;;;18.62;56.36;102225.75;5369561;26;20011;-57
2024/04/13 09:30:09;;;;;;;7.78;2.60;;;;;;;18.54;57.13;102219.47;5371147;26;19996;-54
2024/04/13 09:32:35;;;;;;;5.78;2.50;;;;;;;18.12;57.00;102224.53;5366199;26;20082;-56
2024/04/13 09:35:12;;;;;;;12.50;2.90;;;;;;;18.37;56.75;102218.41;5367884;26;20015;-56
2024/04/13 09:37:38;;;;;;;10.48;2.80;;;;;;;18.23;57.18;102225.19;5356447;26;20020;-53
2024/04/13 09:40:06;;;;;;;7.63;2.85;;;;;;;18.44;56.38;102224.88;5378837;26;20004;-55
2024/04/13 09:42:33;;;;;;;6.00;2.80;;;;;;;18.79;55.93;102224.06;5369412;26;20004;-53
2024/04/13 09:45:05;;;;;;;8.93;2.50;;;;;;;18.12;56.85;102214.59;5366964;26;20000;-53
2024/04/13 09:47:32;;;;;;;11.93;2.45;;;;;;;18.95;55.05;102218.78;5359309;26;20015;-57
2024/04/13 09:49:57;;;;;;;6.40;2.40;;;;;;;18.71;55.41;102196.13;5370370;26;20328;-56
2024/04/13 09:52:23;;;;;;;9.48;2.67;;;;;;;18.67;54.57;102198.31;5371417;26;20081;-55
2024/04/13 09:54:50;;;;;;;7.07;2.40;;;;;;;18.77;53.96;102201.75;5369200;26;20359;-53
2024/04/13 09:57:18;;;;;;;5.32;2.30;;;;;;;18.94;54.75;102194.66;5366070;26;20015;-53
2024/04/13 09:59:47;;;;;;;9.75;2.80;;;;;;;18.96;53.33;102192.59;5362802;26;20001;-52
2024/04/13 10:02:12;;;;;;;7.35;3.20;;;;;;;18.99;53.65;102197.72;5359923;26;20005;-56
2024/04/13 10:04:38;;;;;;;9.18;3.15;;;;;;;19.19;53.16;102199.22;5358107;26;20004;-60
2024/04/13 10:07:06;;;;;;;9.20;3.03;;;;;;;19.28;53.40;102197.44;5369755;26;20001;-54
2024/04/13 10:09:33;;;;;;;6.85;2.50;;;;;;;18.88;54.10;102184.47;5363465;26;20000;-58
2024/04/13 10:12:00;;;;;;;7.65;2.60;;;;;;;19.53;52.94;102180.34;5368861;26;20015;-54
2024/04/13 10:14:28;;;;;;;6.28;2.70;;;;;;;19.89;52.05;102178.28;5374214;26;20023;-53
2024/04/13 10:16:57;;;;;;;9.40;3.80;;;;;;;19.56;51.84;102185.44;5366932;26;20000;-55
2024/04/13 10:19:22;;;;;;;6.15;3.40;;;;;;;19.15;53.36;102189.72;5356135;26;20012;-58
2024/04/13 10:21:58;;;;;;;7.45;3.17;;;;;;;19.50;51.81;102167.13;5366530;26;20008;-52
2024/04/13 10:24:27;;;;;;;7.88;2.90;;;;;;;19.56;52.21;102163.78;5363545;26;20000;-59
2024/04/13 10:26:53;;;;;;;4.80;2.58;;;;;;;19.90;51.21;102162.94;5363800;26;20451;-54
2024/04/13 10:29:25;;;;;;;8.85;2.95;;;;;;;19.89;50.53;102162.06;5369185;26;20015;-58
2024/04/13 10:31:51;;;;;;;8.25;2.90;;;;;;;19.44;51.83;102158.81;5352137;26;20538;-52
2024/04/13 10:34:24;;;;;;;5.68;2.58;;;;;;;19.97;50.15;102150.44;5368670;26;20029;-54
2024/04/13 10:36:57;;;;;;;8.40;2.70;;;;;;;19.66;49.91;102144.72;5367054;26;20015;-59
2024/04/13 10:39:23;;;;;;;8.48;2.75;;;;;;;19.82;50.50;102135.81;5367141;26;20004;-57
2024/04/13 10:41:49;;;;;;;7.13;2.47;;;;;;;19.95;49.61;102136.22;5360181;26;19996;-51
2024/04/13 10:44:24;;;;;;;6.28;2.85;;;;;;;19.90;50.10;102141.28;5365594;26;20019;-58
2024/04/13 10:46:51;;;;;;;8.50;2.80;;;;;;;20.32;50.37;102133.88;5340153;26;21717;-56
2024/04/13 10:49:20;;;;;;;6.82;2.63;;;;;;;20.13;49.75;102145.88;5374582;26;20000;-52
2024/04/13 10:51:46;;;;;;;6.75;3.47;;;;;;;20.11;50.04;102152.50;5369857;26;20018;-48
2024/04/13 10:54:13;;;;;;;6.68;2.67;;;;;;;20.05;50.53;102134.19;5353857;26;20008;-56
2024/04/13 10:56:39;;;;;;;5.03;2.50;;;;;;;20.17;50.03;102132.88;5342209;26;20363;-54
2024/04/13 10:59:08;;;;;;;7.30;3.25;;;;;;;19.84;50.10;102129.22;5365366;26;20012;-57
2024/04/13 11:01:41;;;;;;;6.10;2.60;;;;;;;20.05;50.94;102128.78;5339315;26;20001;-52
2024/04/13 11:04:07;;;;;;;8.27;2.75;;;;;;;20.26;50.50;102131.84;5360006;26;20002;-57
2024/04/13 11:06:33;;;;;;;6.95;3.10;;;;;;;20.45;49.95;102139.66;5363514;26;20015;-55
2024/04/13 11:08:59;;;;;;;6.75;2.92;;;;;;;19.74;51.83;102137.47;5369869;26;20397;-54
2024/04/13 11:11:25;;;;;;;8.80;2.88;;;;;;;19.58;50.75;102139.28;5367593;26;20019;-52
2024/04/13 11:13:51;;;;;;;9.52;3.42;;;;;;;19.84;51.37;102126.50;5390430;26;20027;-53
2024/04/13 11:16:17;;;;;;;7.57;2.90;;;;;;;20.16;50.57;102128.47;5361892;26;20486;-56
2024/04/13 11:18:42;;;;;;;10.00;3.10;;;;;;;20.21;50.38;102114.44;5370513;26;20008;-53
2024/04/13 11:21:10;;;;;;;7.72;3.00;;;;;;;20.60;50.65;102111.91;5391218;26;20004;-52